createdAt,value
2022-09-13T00:01:50.026Z,17.00
2022-09-13T00:04:17.400Z,17.00
2022-09-13T00:06:44.700Z,16.90
2022-09-13T00:09:11.955Z,17.00
2022-09-13T00:11:39.331Z,16.90
2022-09-13T00:14:06.739Z,16.80
2022-09-13T00:16:34.059Z,16.80
2022-09-13T00:19:01.544Z,16.70
2022-09-13T00:21:29.242Z,16.60
2022-09-13T00:23:56.521Z,16.50
2022-09-13T00:26:26.831Z,16.50
2022-09-13T00:28:57.263Z,16.40
2022-09-13T00:31:27.476Z,16.30
2022-09-13T00:33:55.924Z,16.30
2022-09-13T00:36:23.121Z,16.20
2022-09-13T00:38:50.527Z,16.10
2022-09-13T00:41:19.831Z,16.10
2022-09-13T00:43:50.749Z,16.00
2022-09-13T00:46:24.892Z,15.90
2022-09-13T00:48:58.532Z,15.90
2022-09-13T00:51:27.282Z,15.80
2022-09-13T00:53:59.937Z,15.80
2022-09-13T00:56:35.910Z,15.80
2022-09-13T00:59:10.376Z,15.80
2022-09-13T01:01:49.325Z,15.70
2022-09-13T01:04:21.092Z,15.70
2022-09-13T01:06:51.331Z,15.60
2022-09-13T01:09:18.936Z,15.60
2022-09-13T01:11:49.093Z,15.60
2022-09-13T01:14:20.562Z,15.50
2022-09-13T01:16:48.272Z,15.50
2022-09-13T01:19:15.831Z,15.50
2022-09-13T01:22:20.591Z,15.40
2022-09-13T01:25:03.283Z,15.40
2022-09-13T01:27:35.824Z,15.30
2022-09-13T01:30:11.632Z,15.30
2022-09-13T01:33:08.357Z,15.20
2022-09-13T01:35:47.641Z,15.20
2022-09-13T01:38:21.056Z,15.10
2022-09-13T01:41:27.556Z,15.10
2022-09-13T01:44:00.837Z,15.10
2022-09-13T01:46:52.697Z,15.00
2022-09-13T01:49:38.561Z,15.00
2022-09-13T01:52:22.345Z,15.00
2022-09-13T01:55:03.242Z,14.90
2022-09-13T01:57:43.176Z,14.90
2022-09-13T02:00:14.986Z,14.90
2022-09-13T02:02:53.885Z,14.80
2022-09-13T02:05:39.828Z,14.80
2022-09-13T02:08:15.954Z,14.80
2022-09-13T02:10:52.199Z,14.80
2022-09-13T02:13:26.382Z,14.80
2022-09-13T02:15:59.760Z,14.70
2022-09-13T02:18:33.561Z,14.70
2022-09-13T02:21:18.024Z,14.70
2022-09-13T02:23:51.682Z,14.60
2022-09-13T02:26:21.921Z,14.60
2022-09-13T02:28:55.416Z,14.60
2022-09-13T02:31:32.120Z,14.60
2022-09-13T02:34:03.591Z,14.50
2022-09-13T02:36:36.642Z,14.40
2022-09-13T02:39:09.850Z,14.40
2022-09-13T02:41:51.370Z,14.40
2022-09-13T02:44:38.485Z,14.40
2022-09-13T02:47:08.451Z,14.30
2022-09-13T02:49:58.166Z,14.30
2022-09-13T02:52:33.667Z,14.30
2022-09-13T02:55:03.968Z,14.30
2022-09-13T02:57:40.970Z,14.30
2022-09-13T03:00:08.926Z,14.30
2022-09-13T03:02:38.271Z,14.30
2022-09-13T03:05:06.429Z,14.20
2022-09-13T03:07:33.674Z,14.30
2022-09-13T03:10:09.594Z,14.20
2022-09-13T03:13:00.184Z,14.20
2022-09-13T03:16:06.866Z,14.10
2022-09-13T03:18:55.352Z,14.10
2022-09-13T03:21:45.688Z,14.00
2022-09-13T03:24:25.511Z,14.00
2022-09-13T03:27:17.394Z,13.90
2022-09-13T03:29:44.584Z,13.90
2022-09-13T03:32:41.055Z,13.90
2022-09-13T03:35:31.670Z,13.80
2022-09-13T03:38:17.371Z,13.80
2022-09-13T03:40:52.631Z,13.80
2022-09-13T03:43:35.513Z,13.80
2022-09-13T03:46:10.493Z,13.80
2022-09-13T03:48:40.844Z,13.70
2022-09-13T03:51:09.857Z,13.70
2022-09-13T03:53:42.926Z,13.70
2022-09-13T03:56:19.979Z,13.60
2022-09-13T03:58:48.278Z,13.60
2022-09-13T04:01:20.297Z,13.60
2022-09-13T04:03:48.039Z,13.60
2022-09-13T04:06:15.687Z,13.60
2022-09-13T04:08:43.625Z,13.50
2022-09-13T04:11:11.439Z,13.50
2022-09-13T04:13:39.225Z,13.50
2022-09-13T04:16:07.330Z,13.50
2022-09-13T04:18:35.546Z,13.50
2022-09-13T04:21:04.548Z,13.50
2022-09-13T04:23:31.914Z,13.50
2022-09-13T04:26:04.167Z,13.50
2022-09-13T04:28:31.480Z,13.60
2022-09-13T04:30:58.698Z,13.60
2022-09-13T04:33:25.984Z,13.60
2022-09-13T04:36:00.205Z,13.60
2022-09-13T04:38:27.853Z,13.60
2022-09-13T04:40:56.132Z,13.60
2022-09-13T04:43:24.224Z,13.60
2022-09-13T04:45:51.618Z,13.60
2022-09-13T04:48:19.133Z,13.70
2022-09-13T04:50:47.523Z,13.70
2022-09-13T04:53:14.949Z,13.70
2022-09-13T04:55:42.355Z,13.80
2022-09-13T04:58:09.640Z,14.00
2022-09-13T05:00:37.441Z,14.10
2022-09-13T05:03:04.647Z,14.30
2022-09-13T05:05:32.535Z,14.40
2022-09-13T05:07:59.823Z,14.60
2022-09-13T05:10:27.187Z,14.60
2022-09-13T05:12:54.412Z,14.70
2022-09-13T05:15:21.633Z,14.80
2022-09-13T05:17:48.842Z,15.00
2022-09-13T05:20:16.244Z,15.10
2022-09-13T05:22:43.457Z,15.20
2022-09-13T05:25:10.751Z,15.30
2022-09-13T05:27:38.043Z,15.50
2022-09-13T05:30:06.050Z,15.60
2022-09-13T05:32:33.418Z,15.70
2022-09-13T05:35:00.625Z,15.90
2022-09-13T05:37:28.027Z,16.00
2022-09-13T05:40:10.637Z,16.20
2022-09-13T05:42:39.282Z,16.30
2022-09-13T05:45:07.317Z,16.50
2022-09-13T05:47:34.522Z,16.70
2022-09-13T05:50:10.281Z,16.90
2022-09-13T05:52:39.170Z,17.00
2022-09-13T05:55:06.734Z,17.20
2022-09-13T05:57:34.020Z,17.30
2022-09-13T06:00:01.458Z,17.50
2022-09-13T06:02:29.068Z,17.70
2022-09-13T06:04:56.441Z,17.80
2022-09-13T06:07:23.651Z,18.00
2022-09-13T06:09:51.477Z,18.10
2022-09-13T06:12:18.678Z,18.30
2022-09-13T06:14:45.967Z,18.40
2022-09-13T06:17:13.312Z,18.60
2022-09-13T06:19:40.528Z,18.80
2022-09-13T06:22:07.852Z,18.80
2022-09-13T06:24:37.455Z,18.90
2022-09-13T06:27:05.060Z,19.00
2022-09-13T06:29:32.583Z,19.10
2022-09-13T06:31:59.783Z,19.20
2022-09-13T06:34:31.109Z,19.30
2022-09-13T06:36:59.067Z,19.20
2022-09-13T06:39:26.411Z,19.20
2022-09-13T06:41:53.951Z,19.20
2022-09-13T06:44:34.011Z,19.20
2022-09-13T06:47:01.271Z,19.30
2022-09-13T06:49:29.340Z,19.30
2022-09-13T06:51:59.428Z,19.30
2022-09-13T06:54:26.832Z,19.30
2022-09-13T06:56:54.090Z,19.40
2022-09-13T06:59:21.468Z,19.50
2022-09-13T07:01:48.851Z,19.60
2022-09-13T07:04:19.270Z,19.70
2022-09-13T07:06:48.712Z,19.90
2022-09-13T07:09:19.750Z,20.00
2022-09-13T07:11:48.437Z,20.10
2022-09-13T07:14:20.715Z,20.20
2022-09-13T07:16:48.193Z,20.30
2022-09-13T07:49:19.311Z,21.50
2022-09-13T07:51:46.678Z,21.70
2022-09-13T07:54:17.639Z,21.90
2022-09-13T07:56:45.728Z,22.00
2022-09-13T07:59:15.110Z,22.20
2022-09-13T08:01:45.276Z,22.30
2022-09-13T08:04:18.132Z,22.40
2022-09-13T08:06:46.720Z,22.50
2022-09-13T08:09:15.266Z,22.50
2022-09-13T08:11:53.231Z,22.40
2022-09-13T08:14:22.597Z,22.50
2022-09-13T08:16:49.887Z,22.60
2022-09-13T08:19:18.686Z,22.80
2022-09-13T08:21:47.139Z,22.80
2022-09-13T08:24:21.794Z,22.90
2022-09-13T08:26:49.690Z,23.00
2022-09-13T08:29:17.382Z,23.20
2022-09-13T08:31:44.999Z,23.30
2022-09-13T08:34:14.583Z,23.40
2022-09-13T08:36:42.152Z,23.50
2022-09-13T08:39:11.950Z,23.60
2022-09-13T08:41:42.494Z,23.60
2022-09-13T08:44:09.882Z,23.60
2022-09-13T08:46:41.288Z,23.60
2022-09-13T08:49:19.016Z,23.60
2022-09-13T08:51:49.843Z,23.50
2022-09-13T08:54:18.622Z,23.60
2022-09-13T08:56:56.821Z,23.70
2022-09-13T08:59:41.260Z,23.90
2022-09-13T09:02:23.524Z,24.00
2022-09-13T09:05:05.895Z,24.00
2022-09-13T09:07:37.910Z,24.00
2022-09-13T09:10:13.567Z,24.10
2022-09-13T09:12:48.832Z,24.10
2022-09-13T09:15:40.902Z,24.20
2022-09-13T09:18:29.198Z,24.40
2022-09-13T09:20:58.234Z,24.50
2022-09-13T09:23:49.367Z,24.50
2022-09-13T09:26:22.635Z,24.50
2022-09-13T09:29:24.718Z,24.40
2022-09-13T09:32:20.458Z,24.50
2022-09-13T09:35:15.580Z,24.60
2022-09-13T09:37:45.934Z,24.70
2022-09-13T09:40:14.489Z,24.90
2022-09-13T09:42:48.080Z,25.00
2022-09-13T09:45:20.876Z,25.10
2022-09-13T09:47:51.521Z,25.10
2022-09-13T09:50:24.103Z,25.10
2022-09-13T09:53:06.596Z,25.40
2022-09-13T09:56:03.802Z,25.60
2022-09-13T09:58:53.567Z,25.80
2022-09-13T10:01:24.704Z,25.80
2022-09-13T10:04:12.411Z,25.80
2022-09-13T10:06:41.919Z,25.80
2022-09-13T10:09:23.410Z,25.80
2022-09-13T10:11:59.764Z,25.80
2022-09-13T10:14:42.999Z,25.80
2022-09-13T10:17:25.839Z,25.90
2022-09-13T10:20:02.230Z,26.00
2022-09-13T10:22:31.462Z,26.20
2022-09-13T10:25:27.261Z,26.30
2022-09-13T10:27:57.924Z,26.30
2022-09-13T10:30:32.986Z,26.30
2022-09-13T10:33:01.843Z,26.30
2022-09-13T10:35:29.827Z,26.30
2022-09-13T10:37:57.091Z,26.20
2022-09-13T10:40:31.249Z,26.20
2022-09-13T10:43:00.427Z,26.20
2022-09-13T10:45:31.337Z,26.30
2022-09-13T10:48:13.200Z,26.50
2022-09-13T10:50:40.535Z,26.60
2022-09-13T10:53:40.059Z,26.80
2022-09-13T10:56:21.082Z,26.80
2022-09-13T10:58:48.379Z,26.80
2022-09-13T11:01:18.863Z,26.70
2022-09-13T11:04:26.943Z,26.60
2022-09-13T11:07:08.702Z,26.60
2022-09-13T11:10:05.854Z,26.60
2022-09-13T11:13:00.036Z,26.60
2022-09-13T11:15:33.329Z,26.60
2022-09-13T11:18:34.799Z,26.70
2022-09-13T11:21:20.681Z,26.60
2022-09-13T11:24:08.116Z,26.50
2022-09-13T11:26:38.825Z,26.50
2022-09-13T11:29:43.010Z,26.30
2022-09-13T11:32:16.056Z,26.10
2022-09-13T11:35:12.662Z,26.00
2022-09-13T11:38:13.054Z,25.90
2022-09-13T11:40:51.957Z,26.10
2022-09-13T11:43:27.978Z,26.40
2022-09-13T11:46:07.113Z,26.50
2022-09-13T11:48:58.252Z,26.60
2022-09-13T11:51:51.728Z,26.60
2022-09-13T11:54:24.167Z,26.80
2022-09-13T11:56:58.398Z,26.70
2022-09-13T11:59:50.523Z,26.50
2022-09-13T12:02:29.751Z,26.40
2022-09-13T12:05:23.743Z,26.40
2022-09-13T12:07:58.166Z,26.40
2022-09-13T12:10:35.631Z,26.40
2022-09-13T12:13:04.719Z,26.40
2022-09-13T12:15:40.776Z,26.30
2022-09-13T12:18:28.247Z,26.30
2022-09-13T12:21:08.939Z,26.30
2022-09-13T12:23:53.585Z,26.30
2022-09-13T12:26:23.003Z,26.40
2022-09-13T12:29:23.889Z,26.30
2022-09-13T12:31:52.895Z,26.30
2022-09-13T12:34:39.518Z,26.40
2022-09-13T12:37:26.135Z,26.70
2022-09-13T12:40:13.618Z,26.90
2022-09-13T12:43:01.913Z,27.00
2022-09-13T12:45:38.386Z,27.10
2022-09-13T12:48:33.248Z,27.10
2022-09-13T12:51:12.387Z,27.20
2022-09-13T12:54:07.506Z,27.20
2022-09-13T12:57:02.799Z,27.00
2022-09-13T12:59:48.995Z,26.80
2022-09-13T13:02:29.013Z,26.50
2022-09-13T13:05:03.750Z,26.30
2022-09-13T13:07:35.335Z,26.30
2022-09-13T13:10:03.455Z,26.50
2022-09-13T13:12:37.729Z,26.60
2022-09-13T13:15:30.753Z,26.70
2022-09-13T13:18:17.999Z,26.80
2022-09-13T13:20:48.300Z,26.90
2022-09-13T13:23:27.819Z,27.00
2022-09-13T13:25:55.027Z,27.00
2022-09-13T13:28:47.707Z,27.00
2022-09-13T13:31:24.659Z,27.10
2022-09-13T13:34:15.455Z,27.20
2022-09-13T13:36:47.832Z,27.30
2022-09-13T13:39:26.798Z,27.30
2022-09-13T13:41:59.688Z,27.50
2022-09-13T13:44:29.988Z,27.60
2022-09-13T13:47:17.312Z,27.70
2022-09-13T13:50:27.228Z,27.90
2022-09-13T13:53:03.183Z,27.90
2022-09-13T13:55:40.259Z,27.90
2022-09-13T13:58:19.359Z,28.00
2022-09-13T14:00:52.326Z,28.20
2022-09-13T14:03:25.769Z,28.40
2022-09-13T14:06:19.583Z,28.50
2022-09-13T14:09:12.549Z,28.60
2022-09-13T14:12:07.849Z,28.80
2022-09-13T14:14:50.027Z,29.00
2022-09-13T14:17:32.335Z,29.10
2022-09-13T14:20:08.019Z,29.30
2022-09-13T14:22:35.298Z,29.30
2022-09-13T14:25:25.547Z,29.20
2022-09-13T14:27:59.414Z,29.10
2022-09-13T14:30:39.620Z,29.00
2022-09-13T14:33:08.596Z,29.00
2022-09-13T14:35:38.644Z,28.90
2022-09-13T14:38:16.915Z,28.80
2022-09-13T14:40:51.600Z,28.70
2022-09-13T14:43:25.079Z,28.70
2022-09-13T14:45:57.231Z,28.70
2022-09-13T14:48:34.123Z,28.60
2022-09-13T14:51:07.191Z,28.40
2022-09-13T14:53:35.667Z,28.20
2022-09-13T14:56:12.419Z,28.00
2022-09-13T14:58:45.808Z,27.90
2022-09-13T15:01:20.203Z,27.70
2022-09-13T15:03:49.055Z,27.60
2022-09-13T15:06:26.167Z,27.30
2022-09-13T15:08:57.094Z,27.20
2022-09-13T15:11:36.698Z,27.00
2022-09-13T15:14:17.524Z,26.90
2022-09-13T15:16:58.477Z,26.70
2022-09-13T15:19:35.275Z,26.70
2022-09-13T15:22:26.293Z,26.60
2022-09-13T15:24:58.713Z,26.60
2022-09-13T15:27:25.944Z,26.50
2022-09-13T15:29:57.305Z,26.50
2022-09-13T15:32:42.883Z,26.40
2022-09-13T15:35:34.117Z,26.40
2022-09-13T15:38:10.428Z,26.30
2022-09-13T15:40:46.830Z,26.30
2022-09-13T15:43:14.129Z,26.20
2022-09-13T15:45:41.530Z,26.20
2022-09-13T15:48:24.783Z,26.10
2022-09-13T15:51:09.401Z,26.10
2022-09-13T15:53:38.914Z,26.00
2022-09-13T15:56:08.207Z,25.90
2022-09-13T15:58:37.939Z,25.80
2022-09-13T16:01:05.859Z,25.80
2022-09-13T16:03:34.006Z,25.70
2022-09-13T16:06:01.209Z,25.60
2022-09-13T16:08:28.414Z,25.60
2022-09-13T16:10:55.625Z,25.60
2022-09-13T16:13:23.338Z,25.50
2022-09-13T16:15:52.674Z,25.50
2022-09-13T16:18:23.698Z,25.40
2022-09-13T16:20:51.457Z,25.40
2022-09-13T16:23:18.694Z,25.30
2022-09-13T16:25:47.684Z,25.30
2022-09-13T16:28:21.867Z,25.30
2022-09-13T16:30:49.435Z,25.20
2022-09-13T16:33:16.842Z,25.20
2022-09-13T16:35:44.143Z,25.20
2022-09-13T16:38:11.394Z,25.20
2022-09-13T16:40:40.998Z,25.10
2022-09-13T16:43:08.755Z,25.00
2022-09-13T16:45:39.555Z,24.90
2022-09-13T16:48:07.869Z,24.90
2022-09-13T16:50:36.031Z,24.90
2022-09-13T16:53:03.342Z,24.80
2022-09-13T16:55:30.594Z,24.80
2022-09-13T16:57:57.844Z,24.80
2022-09-13T17:00:28.500Z,24.70
2022-09-13T17:02:56.720Z,24.70
2022-09-13T17:05:24.520Z,24.60
2022-09-13T17:07:53.021Z,24.60
2022-09-13T17:10:21.471Z,24.50
2022-09-13T17:12:49.154Z,24.40
2022-09-13T17:15:16.824Z,24.40
2022-09-13T17:17:44.389Z,24.30
2022-09-13T17:20:13.221Z,24.30
2022-09-13T17:22:41.166Z,24.30
2022-09-13T17:25:08.933Z,24.30
2022-09-13T17:27:36.649Z,24.20
2022-09-13T17:30:05.156Z,24.20
2022-09-13T17:32:32.952Z,24.10
2022-09-13T17:35:00.207Z,24.10
2022-09-13T17:37:27.462Z,24.10
2022-09-13T17:39:54.730Z,24.10
2022-09-13T17:42:23.554Z,24.00
2022-09-13T17:44:51.220Z,24.00
2022-09-13T17:47:18.529Z,23.90
2022-09-13T17:49:47.173Z,23.90
2022-09-13T17:52:14.422Z,23.80
2022-09-13T17:54:41.650Z,23.80
2022-09-13T17:57:11.774Z,23.80
2022-09-13T17:59:39.082Z,23.70
2022-09-13T18:02:07.186Z,23.70
2022-09-13T18:04:34.593Z,23.70
2022-09-13T18:07:01.811Z,23.70
2022-09-13T18:09:29.166Z,23.60
2022-09-13T18:11:56.684Z,23.60
2022-09-13T18:14:24.833Z,23.60
2022-09-13T18:16:55.716Z,23.60
2022-09-13T18:19:44.439Z,23.60
2022-09-13T18:22:11.580Z,23.50
2022-09-13T18:24:38.802Z,23.50
2022-09-13T18:27:06.171Z,23.40
2022-09-13T18:29:33.436Z,23.40
2022-09-13T18:32:00.789Z,23.40
2022-09-13T18:34:28.166Z,23.30
2022-09-13T18:36:55.458Z,23.30
2022-09-13T18:39:23.067Z,23.20
2022-09-13T18:41:50.566Z,23.10
2022-09-13T18:44:18.674Z,23.10
2022-09-13T18:46:47.347Z,23.00
2022-09-13T18:49:15.118Z,22.80
2022-09-13T18:51:44.073Z,22.70
2022-09-13T18:54:15.443Z,22.60
2022-09-13T18:56:42.730Z,22.60
2022-09-13T18:59:12.230Z,22.50
2022-09-13T19:01:42.033Z,22.50
2022-09-13T19:04:17.573Z,22.50
2022-09-13T19:06:51.766Z,22.50
2022-09-13T19:09:21.003Z,22.40
2022-09-13T19:11:50.376Z,22.40
2022-09-13T19:14:23.203Z,22.30
2022-09-13T19:16:52.579Z,22.30
2022-09-13T19:19:20.115Z,22.30
2022-09-13T19:21:47.648Z,22.20
2022-09-13T19:24:20.272Z,22.20
2022-09-13T19:26:51.024Z,22.10
2022-09-13T19:29:21.279Z,22.10
2022-09-13T19:31:49.891Z,22.20
2022-09-13T19:34:19.227Z,22.20
2022-09-13T19:36:48.907Z,22.20
2022-09-13T19:39:16.394Z,22.20
2022-09-13T19:41:43.669Z,22.20
2022-09-13T19:44:12.665Z,22.20
2022-09-13T19:46:41.341Z,22.20
2022-09-13T19:49:13.456Z,22.20
2022-09-13T19:51:42.223Z,22.20
2022-09-13T19:54:13.732Z,22.20
2022-09-13T19:56:43.774Z,22.10
2022-09-13T19:59:15.242Z,22.10
2022-09-13T20:01:44.847Z,22.00
2022-09-13T20:04:14.850Z,22.00
2022-09-13T20:06:44.607Z,21.90
2022-09-13T20:09:13.708Z,21.90
2022-09-13T20:11:45.476Z,21.80
2022-09-13T20:14:14.889Z,21.70
2022-09-13T20:16:43.179Z,21.60
2022-09-13T20:19:39.740Z,21.50
2022-09-13T20:22:07.640Z,21.40
2022-09-13T20:24:35.073Z,21.30
2022-09-13T20:27:02.353Z,21.20
2022-09-13T20:29:29.826Z,21.20
2022-09-13T20:31:57.217Z,21.10
2022-09-13T20:34:24.581Z,21.00
2022-09-13T20:36:51.781Z,20.90
2022-09-13T20:39:19.386Z,20.90
2022-09-13T20:41:49.263Z,20.80
2022-09-13T20:44:16.821Z,20.80
2022-09-13T20:46:44.400Z,20.70
2022-09-13T20:49:11.988Z,20.70
2022-09-13T20:51:39.756Z,20.70
2022-09-13T20:54:07.396Z,20.70
2022-09-13T20:56:35.564Z,20.70
2022-09-13T20:59:05.069Z,20.70
2022-09-13T21:01:33.349Z,20.70
2022-09-13T21:04:01.390Z,20.80
2022-09-13T21:06:31.532Z,20.80
2022-09-13T21:08:59.879Z,20.80
2022-09-13T21:11:30.321Z,20.80
2022-09-13T21:14:00.751Z,20.80
2022-09-13T21:16:30.844Z,20.80
2022-09-13T21:18:58.141Z,20.80
2022-09-13T21:21:30.879Z,20.80
2022-09-13T21:24:04.364Z,20.80
2022-09-13T21:26:32.409Z,20.80
2022-09-13T21:29:00.782Z,20.80
2022-09-13T21:31:30.760Z,20.90
2022-09-13T21:34:07.272Z,20.90
2022-09-13T21:36:35.555Z,20.90
2022-09-13T21:39:04.929Z,20.80
2022-09-13T21:41:32.445Z,20.80
2022-09-13T21:43:59.791Z,20.70
2022-09-13T21:46:29.589Z,20.60
2022-09-13T21:48:59.098Z,20.60
2022-09-13T21:51:35.439Z,20.50
2022-09-13T21:54:06.623Z,20.40
2022-09-13T21:56:39.803Z,20.30
2022-09-13T21:59:12.374Z,20.20
2022-09-13T22:01:40.704Z,20.20
2022-09-13T22:04:15.297Z,20.20
2022-09-13T22:06:43.444Z,20.10
2022-09-13T22:09:12.458Z,20.10
2022-09-13T22:11:43.646Z,20.00
2022-09-13T22:14:19.896Z,20.00
2022-09-13T22:16:47.248Z,19.90
2022-09-13T22:19:24.298Z,19.80
2022-09-13T22:21:55.565Z,19.80
2022-09-13T22:24:25.004Z,19.70
2022-09-13T22:26:53.459Z,19.70
2022-09-13T22:29:21.491Z,19.70
2022-09-13T22:31:50.271Z,19.70
2022-09-13T22:34:21.348Z,19.70
2022-09-13T22:36:48.938Z,19.60
2022-09-13T22:39:17.398Z,19.60
2022-09-13T22:41:45.593Z,19.60
2022-09-13T22:44:13.451Z,19.60
2022-09-13T22:46:45.761Z,19.50
2022-09-13T22:49:18.750Z,19.50
2022-09-13T22:51:47.972Z,19.50
2022-09-13T22:54:16.574Z,19.40
2022-09-13T22:56:44.048Z,19.40
2022-09-13T22:59:14.723Z,19.40
2022-09-13T23:01:42.531Z,19.40
2022-09-13T23:04:10.439Z,19.40
2022-09-13T23:06:38.159Z,19.40
2022-09-13T23:09:07.929Z,19.40
2022-09-13T23:11:37.293Z,19.30
2022-09-13T23:14:07.811Z,19.30
2022-09-13T23:16:37.941Z,19.30
2022-09-13T23:19:06.068Z,19.30
2022-09-13T23:21:35.231Z,19.20
2022-09-13T23:24:04.255Z,19.20
2022-09-13T23:26:32.066Z,19.20
2022-09-13T23:29:00.921Z,19.30
2022-09-13T23:31:33.939Z,19.30
2022-09-13T23:34:04.104Z,19.30
2022-09-13T23:36:34.568Z,19.30
2022-09-13T23:39:03.553Z,19.40
2022-09-13T23:41:32.725Z,19.40
2022-09-13T23:44:00.902Z,19.40
2022-09-13T23:46:29.126Z,19.40
2022-09-13T23:48:56.489Z,19.40
2022-09-13T23:51:25.379Z,19.50
2022-09-13T23:53:56.900Z,19.40
2022-09-13T23:56:29.102Z,19.30
2022-09-13T23:58:57.833Z,19.30
